Time;durP1;ratioP1;P1;durP2;ratioP2;P2;SDS_P1;SDS_P2;PMS_P1;PMS_P2;Temp;Humidity;BMP_temperature;BMP_pressure;BME280_temperature;BME280_humidity;BME280_pressure;Samples;Min_cycle;Max_cycle;Signal;HPM_P1;HPM_P2
2022/07/15 00:00:31;;;;;;;3.60;3.10;;;;;;;21.04;53.33;97092.00;4819666;29;20212;-69
2022/07/15 00:02:59;;;;;;;4.87;2.90;;;;;;;20.68;54.31;97108.31;4819502;29;20772;-69
2022/07/15 00:05:26;;;;;;;3.97;2.90;;;;;;;20.31;55.10;97106.25;4819750;29;20233;-68
2022/07/15 00:07:53;;;;;;;3.20;2.90;;;;;;;20.07;55.24;97103.84;4819484;29;21084;-68
2022/07/15 00:10:21;;;;;;;3.50;3.07;;;;;;;20.25;55.09;97104.97;4819673;29;20251;-69
2022/07/15 00:12:51;;;;;;;2.77;2.50;;;;;;;20.62;53.85;97110.63;4802912;29;20776;-70
2022/07/15 00:15:21;;;;;;;7.40;2.93;;;;;;;20.83;53.24;97101.75;4819785;29;20213;-71
2022/07/15 00:17:49;;;;;;;3.67;2.50;;;;;;;21.03;52.92;97102.69;4819141;29;20237;-69
2022/07/15 00:20:18;;;;;;;4.80;2.97;;;;;;;21.05;52.60;97101.59;4819215;29;20688;-69
2022/07/15 00:22:46;;;;;;;5.77;2.83;;;;;;;21.08;52.26;97097.00;4819494;29;20201;-69
2022/07/15 00:25:14;;;;;;;3.17;2.87;;;;;;;20.62;53.45;97100.09;4819429;29;20209;-69
2022/07/15 00:27:55;;;;;;;3.60;2.67;;;;;;;20.37;54.39;97098.69;4803614;29;20205;-69
2022/07/15 00:30:24;;;;;;;2.80;2.47;;;;;;;20.19;55.18;97092.31;4819257;29;20217;-69
2022/07/15 00:32:51;;;;;;;4.90;2.60;;;;;;;19.87;55.36;97065.19;4819487;29;20222;-69
2022/07/15 00:35:18;;;;;;;4.97;3.37;;;;;;;19.81;55.99;97094.63;4819225;29;20202;-69
2022/07/15 00:37:46;;;;;;;2.50;2.20;;;;;;;19.68;56.33;97088.72;4819181;29;20232;-69
2022/07/15 00:40:13;;;;;;;5.03;2.30;;;;;;;19.63;56.46;97085.63;4819431;29;20220;-69
2022/07/15 00:42:46;;;;;;;3.47;2.87;;;;;;;19.58;56.50;97088.59;4819039;29;20276;-69
2022/07/15 00:45:21;;;;;;;3.00;2.43;;;;;;;19.46;56.70;97081.72;4819485;29;20637;-69
2022/07/15 00:47:54;;;;;;;3.50;2.30;;;;;;;19.59;56.40;97084.19;4819161;29;20258;-69
2022/07/15 00:50:23;;;;;;;7.47;3.03;;;;;;;19.65;56.13;97081.06;4818998;29;20657;-69
2022/07/15 00:52:59;;;;;;;5.37;2.77;;;;;;;19.81;55.52;97077.06;4819276;29;20677;-68
2022/07/15 00:55:29;;;;;;;2.70;2.13;;;;;;;19.89;54.88;97085.16;4819053;29;20205;-69
2022/07/15 00:58:02;;;;;;;2.93;2.50;;;;;;;19.81;54.41;97077.06;4802821;29;20237;-70
2022/07/15 01:00:29;;;;;;;2.83;2.57;;;;;;;19.64;54.92;97069.72;4818873;29;20202;-69
2022/07/15 01:02:58;;;;;;;2.90;2.63;;;;;;;19.36;55.52;97079.00;4818744;29;20212;-68
2022/07/15 01:05:26;;;;;;;3.47;2.67;;;;;;;19.23;55.39;97067.78;4802018;29;20208;-68
2022/07/15 01:07:54;;;;;;;2.80;2.10;;;;;;;19.18;55.50;97066.47;4818453;29;20240;-69
2022/07/15 01:10:22;;;;;;;2.43;2.23;;;;;;;19.03;55.56;97065.06;4818797;29;20269;-68
2022/07/15 01:12:50;;;;;;;2.60;2.40;;;;;;;19.11;55.32;97060.03;4802214;29;20251;-69
2022/07/15 01:15:25;;;;;;;3.97;2.40;;;;;;;19.52;54.39;97054.09;4802193;29;20264;-68
2022/07/15 01:17:52;;;;;;;2.30;2.10;;;;;;;19.81;53.85;97053.41;4801746;29;20249;-69
2022/07/15 01:20:20;;;;;;;3.33;2.27;;;;;;;20.03;53.44;97055.13;4817493;29;20244;-69
2022/07/15 01:22:56;;;;;;;2.20;2.00;;;;;;;20.22;51.89;97053.47;4802101;29;20209;-68
2022/07/15 01:25:29;;;;;;;2.73;2.43;;;;;;;20.33;51.09;97055.19;4802073;29;20205;-69
2022/07/15 01:27:57;;;;;;;2.30;2.10;;;;;;;20.21;51.79;97046.56;4802294;29;20213;-68
2022/07/15 01:30:26;;;;;;;4.13;2.20;;;;;;;20.27;51.42;97045.19;4801836;29;20215;-69
2022/07/15 01:32:55;;;;;;;3.73;2.43;;;;;;;20.23;51.94;97038.53;4801960;29;20202;-69
2022/07/15 01:35:22;;;;;;;2.83;2.47;;;;;;;20.06;52.08;97041.69;4818406;29;20253;-69
2022/07/15 01:37:49;;;;;;;4.67;3.00;;;;;;;19.97;52.44;97043.28;4802076;29;20722;-69
2022/07/15 01:40:16;;;;;;;2.80;2.20;;;;;;;19.48;53.28;97051.75;4801970;29;20300;-70
2022/07/15 01:42:44;;;;;;;4.80;2.30;;;;;;;19.10;55.17;97046.06;4801890;29;20237;-70
2022/07/15 01:45:13;;;;;;;2.80;2.30;;;;;;;18.92;56.13;97047.53;4817382;29;20215;-69
2022/07/15 01:47:45;;;;;;;4.73;2.40;;;;;;;18.65;57.08;97049.69;4818425;29;20205;-69
2022/07/15 01:50:16;;;;;;;2.60;2.30;;;;;;;18.51;57.80;97048.13;4801804;29;20205;-68
2022/07/15 01:52:55;;;;;;;2.70;2.50;;;;;;;18.52;58.59;97051.59;4801394;29;20212;-68
2022/07/15 01:55:23;;;;;;;3.50;2.30;;;;;;;18.37;59.42;97060.59;4801491;29;20223;-69
2022/07/15 01:57:52;;;;;;;3.47;2.90;;;;;;;18.28;60.36;97053.47;4801625;29;20738;-69
2022/07/15 02:00:20;;;;;;;3.83;3.30;;;;;;;18.04;62.01;97053.50;4801369;29;20220;-70
2022/07/15 02:02:47;;;;;;;2.93;2.73;;;;;;;17.88;62.87;97051.22;4801896;29;20736;-69
2022/07/15 02:05:19;;;;;;;3.93;3.10;;;;;;;17.82;64.04;97054.31;4816959;29;20673;-69
2022/07/15 02:07:49;;;;;;;5.60;3.50;;;;;;;17.88;63.50;97053.84;4801588;29;20214;-69
2022/07/15 02:10:18;;;;;;;5.43;3.40;;;;;;;18.20;62.59;97047.94;4801603;29;20211;-70
2022/07/15 02:12:47;;;;;;;3.60;3.30;;;;;;;18.49;61.34;97047.44;4818176;29;20600;-68
2022/07/15 02:15:23;;;;;;;3.83;3.43;;;;;;;18.62;60.70;97032.41;4816779;29;20239;-68
2022/07/15 02:17:55;;;;;;;4.23;3.83;;;;;;;18.77;59.99;97046.13;4804321;29;20278;-69
2022/07/15 02:20:27;;;;;;;4.97;3.83;;;;;;;18.82;59.43;97043.13;4804975;29;20241;-69
2022/07/15 02:22:59;;;;;;;4.90;3.73;;;;;;;18.66;59.15;97046.13;4804805;29;20669;-69
2022/07/15 02:25:29;;;;;;;4.00;3.57;;;;;;;18.66;59.59;97038.25;4805156;29;20618;-69
2022/07/15 02:27:57;;;;;;;4.40;3.47;;;;;;;18.59;59.55;97044.91;4821642;29;20613;-69
2022/07/15 02:30:27;;;;;;;4.47;4.07;;;;;;;18.41;59.83;97049.78;4817570;29;20677;-69
2022/07/15 02:32:55;;;;;;;3.77;3.47;;;;;;;18.30;60.86;97051.56;4802278;29;20201;-69
2022/07/15 02:35:24;;;;;;;5.87;3.50;;;;;;;18.24;61.04;97054.63;4786995;29;20258;-69
2022/07/15 02:37:51;;;;;;;4.30;3.53;;;;;;;18.05;61.50;97055.19;4801980;29;20232;-69
2022/07/15 02:40:19;;;;;;;6.43;3.93;;;;;;;17.99;61.22;97060.06;4786913;29;20678;-69
2022/07/15 02:42:48;;;;;;;4.87;3.60;;;;;;;17.78;61.89;97052.00;4803448;29;20209;-68
2022/07/15 02:45:17;;;;;;;4.67;4.10;;;;;;;17.91;61.59;97051.94;4804090;29;20299;-68
2022/07/15 02:47:45;;;;;;;5.97;5.37;;;;;;;17.82;62.22;97054.31;4786822;29;20303;-68
2022/07/15 02:50:14;;;;;;;6.67;6.07;;;;;;;17.83;62.26;97049.88;4787103;29;20260;-68
2022/07/15 02:52:42;;;;;;;7.33;6.20;;;;;;;17.73;62.40;97052.34;4786067;29;20576;-68
2022/07/15 02:55:11;;;;;;;6.27;5.67;;;;;;;17.79;62.28;97057.13;4801493;29;20216;-69
2022/07/15 02:57:40;;;;;;;8.90;5.40;;;;;;;17.79;62.52;97061.53;4786412;29;20232;-68
2022/07/15 03:00:11;;;;;;;4.63;4.13;;;;;;;17.74;62.21;97059.25;4786482;29;20208;-68
2022/07/15 03:02:39;;;;;;;7.10;4.90;;;;;;;17.63;62.54;97059.22;4801509;29;20208;-69
2022/07/15 03:05:09;;;;;;;5.03;4.53;;;;;;;17.39;63.18;97062.75;4801454;29;20673;-68
2022/07/15 03:07:36;;;;;;;5.07;4.57;;;;;;;17.19;63.37;97051.09;4801436;29;20629;-68
2022/07/15 03:10:05;;;;;;;4.93;4.53;;;;;;;17.10;63.46;97038.69;4802294;29;20234;-70
2022/07/15 03:12:32;;;;;;;4.47;4.03;;;;;;;16.84;63.88;97026.59;4801218;29;20216;-69
2022/07/15 03:15:00;;;;;;;6.73;4.63;;;;;;;16.86;64.62;97056.94;4804186;29;20209;-68
2022/07/15 03:17:30;;;;;;;6.90;4.93;;;;;;;16.86;64.32;97054.31;4803781;29;20240;-69
2022/07/15 03:19:57;;;;;;;6.43;4.67;;;;;;;16.76;64.62;97055.06;4820839;29;20211;-69
2022/07/15 03:22:27;;;;;;;8.20;5.50;;;;;;;16.74;64.86;97051.72;4804183;29;20725;-68
2022/07/15 03:24:54;;;;;;;7.67;5.10;;;;;;;16.92;64.25;97048.66;4804345;29;20214;-69
2022/07/15 03:27:22;;;;;;;5.70;5.20;;;;;;;17.03;63.59;97046.13;4803736;29;20237;-69
2022/07/15 03:29:50;;;;;;;7.40;5.27;;;;;;;17.08;63.59;97051.84;4803822;29;20206;-68
2022/07/15 03:32:19;;;;;;;5.97;5.27;;;;;;;17.23;63.00;97052.53;4803861;29;20209;-67
2022/07/15 03:34:48;;;;;;;5.63;5.07;;;;;;;17.41;62.20;97048.63;4818753;29;20211;-68
2022/07/15 03:37:18;;;;;;;13.27;5.40;;;;;;;17.46;61.82;97053.50;4804164;29;20219;-68
2022/07/15 03:39:47;;;;;;;6.27;5.07;;;;;;;17.53;61.59;97053.00;4803602;29;20265;-67
2022/07/15 03:42:15;;;;;;;5.30;4.60;;;;;;;17.64;61.04;97055.63;4820061;29;20223;-69
2022/07/15 03:44:43;;;;;;;9.73;4.80;;;;;;;17.73;60.65;97052.34;4803449;29;20207;-68
2022/07/15 03:47:11;;;;;;;4.57;4.17;;;;;;;17.97;60.33;97054.09;4819840;29;20209;-68
2022/07/15 03:49:38;;;;;;;4.83;4.10;;;;;;;18.12;59.52;97051.16;4804196;29;20295;-69
2022/07/15 03:52:06;;;;;;;5.43;4.43;;;;;;;18.44;58.68;97056.59;4803592;29;20240;-69
2022/07/15 03:54:35;;;;;;;4.93;3.87;;;;;;;18.77;57.47;97047.91;4819075;29;20236;-69
2022/07/15 03:57:02;;;;;;;6.03;3.87;;;;;;;19.01;56.75;97046.81;4803666;29;20210;-68
2022/07/15 03:59:29;;;;;;;6.07;4.73;;;;;;;19.33;55.72;97042.47;4803529;29;20231;-68
2022/07/15 04:01:56;;;;;;;5.87;4.30;;;;;;;19.49;55.25;97042.09;4803512;29;20231;-68
2022/07/15 04:04:23;;;;;;;6.73;4.23;;;;;;;19.80;54.42;97053.53;4803236;29;20294;-68
2022/07/15 04:06:50;;;;;;;9.63;4.30;;;;;;;19.81;54.71;97050.78;4819868;29;20206;-68
2022/07/15 04:09:17;;;;;;;8.90;4.00;;;;;;;20.29;52.93;97048.53;4806798;29;20278;-69
2022/07/15 04:11:44;;;;;;;7.63;3.93;;;;;;;20.33;53.13;97051.72;4810196;29;20250;-69
2022/07/15 04:14:13;;;;;;;5.10;3.67;;;;;;;20.25;53.09;97047.97;4811430;29;20230;-69
2022/07/15 04:16:41;;;;;;;6.50;4.23;;;;;;;20.28;53.10;97060.84;4803241;29;20778;-69
2022/07/15 04:19:44;;;;;;;6.70;3.63;;;;;;;20.40;53.39;97061.63;4805729;29;20237;-69
2022/07/15 04:22:11;;;;;;;4.93;3.50;;;;;;;20.67;53.23;97048.72;4803091;29;20210;-70
2022/07/15 04:24:42;;;;;;;10.10;4.03;;;;;;;20.67;52.74;97047.91;4803158;29;20206;-69
2022/07/15 04:27:12;;;;;;;3.37;3.07;;;;;;;20.56;53.42;97054.09;4802975;29;20209;-70
2022/07/15 04:29:39;;;;;;;3.50;3.20;;;;;;;20.50;53.99;97069.56;4803047;29;20300;-70
2022/07/15 04:32:08;;;;;;;8.27;4.07;;;;;;;20.54;53.78;97057.81;4802341;29;20210;-70
2022/07/15 04:34:39;;;;;;;4.03;3.57;;;;;;;20.73;53.29;97050.81;4817851;29;20262;-70
2022/07/15 04:37:07;;;;;;;8.97;4.23;;;;;;;21.30;51.92;97042.31;4802966;29;20214;-70
2022/07/15 04:39:37;;;;;;;7.77;3.20;;;;;;;21.64;51.13;97058.56;4802157;29;20300;-70
2022/07/15 04:42:04;;;;;;;3.93;3.30;;;;;;;22.14;49.98;97049.59;4802581;29;20623;-70
2022/07/15 04:44:35;;;;;;;4.70;2.97;;;;;;;22.45;49.09;97047.56;4802511;29;20203;-70
2022/07/15 04:47:05;;;;;;;5.90;3.73;;;;;;;22.93;48.04;97045.66;4817533;29;20212;-71
2022/07/15 04:52:24;;;;;;;8.83;3.13;;;;;;;23.38;46.53;97051.00;4818728;29;20210;-69
2022/07/15 04:54:51;;;;;;;3.53;3.10;;;;;;;23.50;45.76;97049.78;4802772;29;20587;-70
2022/07/15 04:57:19;;;;;;;7.57;2.77;;;;;;;23.21;46.62;97049.94;4818753;29;20217;-70
2022/07/15 04:59:47;;;;;;;4.43;3.00;;;;;;;22.85;47.43;97044.72;4787302;29;20237;-70
2022/07/15 05:02:16;;;;;;;6.67;2.73;;;;;;;22.62;48.34;97037.16;4802359;29;20214;-69
2022/07/15 05:04:47;;;;;;;5.67;2.97;;;;;;;22.61;48.50;97039.91;4802213;29;20218;-69
2022/07/15 05:07:15;;;;;;;3.00;2.70;;;;;;;23.13;48.49;97043.72;4817791;29;20214;-69
2022/07/15 05:09:43;;;;;;;5.03;2.80;;;;;;;23.72;46.49;97041.41;4802066;29;20232;-70
2022/07/15 05:12:11;;;;;;;3.47;2.80;;;;;;;23.93;45.15;97039.31;4787156;29;20348;-70
2022/07/15 05:14:54;;;;;;;4.47;2.53;;;;;;;24.04;44.31;97025.88;4818224;29;20692;-70
2022/07/15 05:17:22;;;;;;;3.40;2.60;;;;;;;23.76;44.70;97011.03;4801604;29;20677;-72
2022/07/15 05:19:52;;;;;;;3.47;2.97;;;;;;;23.56;45.94;97025.41;4786929;29;20243;-69
2022/07/15 05:22:23;;;;;;;3.47;2.63;;;;;;;23.47;46.01;97036.06;4801773;29;20211;-70
2022/07/15 05:24:50;;;;;;;6.63;2.67;;;;;;;23.33;46.31;97026.81;4801940;29;20845;-71
2022/07/15 05:27:18;;;;;;;4.00;2.33;;;;;;;23.48;46.42;97029.78;4816936;29;20221;-71
2022/07/15 05:29:47;;;;;;;5.53;2.97;;;;;;;23.51;46.33;97048.00;4801938;29;20200;-70
2022/07/15 05:32:24;;;;;;;5.53;2.40;;;;;;;23.45;46.19;97049.44;4816773;29;20618;-70
2022/07/15 05:34:51;;;;;;;4.93;2.80;;;;;;;23.67;45.92;97048.16;4801405;29;20710;-70
2022/07/15 05:37:19;;;;;;;6.93;2.83;;;;;;;24.15;45.25;97038.03;4818137;29;20214;-69
2022/07/15 05:39:56;;;;;;;4.87;2.70;;;;;;;24.67;44.35;97045.00;4816990;29;20334;-71
2022/07/15 05:42:31;;;;;;;2.47;2.20;;;;;;;24.98;42.65;97048.00;4801670;29;20243;-70
2022/07/15 05:44:58;;;;;;;3.50;2.80;;;;;;;25.27;41.84;97043.16;4817818;29;20328;-70
2022/07/15 05:47:26;;;;;;;3.77;2.50;;;;;;;25.21;42.21;97040.31;4801795;29;20216;-70
2022/07/15 05:49:53;;;;;;;3.93;2.80;;;;;;;25.57;42.88;97039.97;4801252;29;20257;-70
2022/07/15 05:52:20;;;;;;;2.43;2.03;;;;;;;25.65;39.80;97036.50;4816986;29;20232;-70
2022/07/15 05:54:47;;;;;;;4.43;2.50;;;;;;;25.79;39.57;97038.50;4801439;29;20209;-70
2022/07/15 05:57:14;;;;;;;4.40;2.60;;;;;;;25.93;40.52;97031.69;4817889;29;20210;-70
2022/07/15 05:59:41;;;;;;;3.07;2.10;;;;;;;26.20;39.90;97040.19;4817620;29;20237;-70
2022/07/15 06:02:08;;;;;;;5.30;3.60;;;;;;;26.27;38.80;97033.25;4800847;29;20670;-71
2022/07/15 06:04:37;;;;;;;4.70;2.80;;;;;;;26.36;39.15;97026.91;4817918;29;20218;-70
2022/07/15 06:07:05;;;;;;;6.77;2.77;;;;;;;26.61;39.11;97035.66;4801486;29;20258;-70
2022/07/15 06:09:32;;;;;;;5.03;2.90;;;;;;;26.84;38.06;97035.81;4817387;29;20656;-71
2022/07/15 06:11:59;;;;;;;11.83;4.47;;;;;;;26.78;38.79;97026.69;4817822;29;20209;-70
2022/07/15 06:14:26;;;;;;;5.73;2.77;;;;;;;27.01;37.97;97035.59;4817272;29;20698;-70
2022/07/15 06:17:17;;;;;;;8.80;2.50;;;;;;;26.59;38.54;97035.00;4801263;29;20428;-70
2022/07/15 06:19:44;;;;;;;3.30;3.00;;;;;;;26.71;38.73;97048.78;4800863;29;20235;-71
2022/07/15 06:22:11;;;;;;;7.63;2.87;;;;;;;26.87;38.06;97036.31;4801046;29;20221;-70
2022/07/15 06:24:42;;;;;;;6.63;2.77;;;;;;;27.13;38.42;97044.84;4817803;29;20218;-69
2022/07/15 06:27:10;;;;;;;3.20;2.40;;;;;;;26.79;38.43;97012.38;4801647;29;20205;-70
2022/07/15 06:29:37;;;;;;;8.43;4.27;;;;;;;27.22;38.89;97043.78;4818241;29;20225;-71
2022/07/15 06:32:04;;;;;;;4.80;2.80;;;;;;;27.06;37.89;97032.44;4801134;29;20214;-71
2022/07/15 06:34:32;;;;;;;5.10;2.47;;;;;;;27.18;37.34;97029.19;4786882;29;20206;-71
2022/07/15 06:36:59;;;;;;;4.87;2.50;;;;;;;27.30;37.64;97017.19;4800982;29;20209;-70
2022/07/15 06:39:26;;;;;;;4.50;2.27;;;;;;;26.96;37.08;97019.31;4817408;29;20237;-70
2022/07/15 06:41:54;;;;;;;9.50;2.60;;;;;;;27.06;37.08;97027.91;4816478;29;20270;-71
2022/07/15 06:44:22;;;;;;;5.13;2.20;;;;;;;27.05;36.85;97020.13;4801183;29;20220;-70
2022/07/15 06:46:55;;;;;;;6.67;3.63;;;;;;;27.17;37.46;97024.06;4817747;29;20615;-70
2022/07/15 06:49:28;;;;;;;7.70;4.73;;;;;;;27.46;37.19;96999.47;4800535;29;20198;-71
2022/07/15 06:51:56;;;;;;;8.53;3.40;;;;;;;27.91;36.24;97015.47;4816575;29;20221;-71
2022/07/15 06:54:23;;;;;;;9.10;3.40;;;;;;;28.21;36.19;97014.59;4800460;29;20251;-69
2022/07/15 06:56:50;;;;;;;5.43;3.03;;;;;;;28.27;35.24;97011.22;4800694;29;20308;-69
2022/07/15 06:59:18;;;;;;;5.07;2.90;;;;;;;28.34;35.10;97020.13;4800675;29;20234;-70
2022/07/15 07:01:46;;;;;;;6.17;3.07;;;;;;;28.25;35.12;97012.41;4800214;29;20207;-69
2022/07/15 07:04:14;;;;;;;6.70;4.30;;;;;;;28.50;34.75;97003.97;4804057;29;20277;-70
2022/07/15 07:06:42;;;;;;;9.30;3.90;;;;;;;28.64;33.62;97008.56;4803404;29;20598;-70
2022/07/15 07:09:12;;;;;;;5.17;3.20;;;;;;;28.68;33.29;96998.34;4820092;29;20573;-70
2022/07/15 07:11:39;;;;;;;4.60;3.37;;;;;;;28.80;33.58;97007.53;4803767;29;20275;-70
2022/07/15 07:14:07;;;;;;;4.50;3.57;;;;;;;28.83;33.39;97010.66;4819778;29;20198;-71
2022/07/15 07:16:34;;;;;;;5.90;3.40;;;;;;;28.36;33.68;97012.78;4819699;29;20242;-71
2022/07/15 07:19:01;;;;;;;7.33;3.10;;;;;;;28.57;33.83;97004.94;4819727;29;20272;-70
2022/07/15 07:21:28;;;;;;;3.37;2.87;;;;;;;28.65;33.94;97009.34;4819637;29;20194;-70
2022/07/15 07:23:59;;;;;;;4.97;2.80;;;;;;;28.79;34.03;97011.22;4819752;29;20232;-70
2022/07/15 07:26:26;;;;;;;6.80;3.53;;;;;;;28.90;32.91;97003.59;4819687;29;20221;-70
2022/07/15 07:28:56;;;;;;;4.20;2.83;;;;;;;28.80;34.27;97005.72;4803111;29;20209;-70
2022/07/15 07:31:26;;;;;;;4.80;2.47;;;;;;;28.98;33.12;97010.66;4819369;29;20222;-69
2022/07/15 07:33:55;;;;;;;7.67;3.17;;;;;;;28.89;33.71;96993.09;4819951;29;20227;-69
2022/07/15 07:36:24;;;;;;;6.67;3.37;;;;;;;29.11;32.30;97000.16;4819186;29;20205;-72
2022/07/15 07:38:51;;;;;;;7.30;3.00;;;;;;;29.05;33.24;97005.41;4819360;29;20970;-69
2022/07/15 07:41:19;;;;;;;5.77;3.80;;;;;;;29.12;32.20;97009.00;4805051;29;20201;-70
2022/07/15 07:43:46;;;;;;;8.23;2.73;;;;;;;29.19;32.02;97015.25;4819309;29;20210;-70
2022/07/15 07:46:13;;;;;;;4.60;3.80;;;;;;;29.45;31.67;96997.72;4819264;29;20202;-70
2022/07/15 07:48:40;;;;;;;6.03;3.37;;;;;;;29.74;31.49;97007.50;4802819;29;20632;-70
2022/07/15 07:51:07;;;;;;;5.70;2.70;;;;;;;29.90;30.53;97011.78;4819651;29;20210;-70
2022/07/15 07:53:34;;;;;;;2.23;2.03;;;;;;;29.77;31.51;97001.78;4819254;29;20213;-71
2022/07/15 07:56:03;;;;;;;4.87;2.73;;;;;;;29.93;30.23;97004.22;4802831;29;20682;-71
2022/07/15 07:58:31;;;;;;;5.23;2.47;;;;;;;30.03;29.28;97010.06;4819131;29;20202;-71
2022/07/15 08:01:00;;;;;;;7.33;3.27;;;;;;;30.13;30.04;97001.72;4803108;29;20198;-71
2022/07/15 08:03:27;;;;;;;6.53;2.80;;;;;;;30.13;30.01;96980.34;4819403;29;20202;-70
2022/07/15 08:05:58;;;;;;;5.10;3.33;;;;;;;30.29;29.94;96991.63;4819228;29;20690;-71
2022/07/15 08:08:28;;;;;;;6.73;4.60;;;;;;;30.32;29.83;96996.56;4819029;29;20206;-72
2022/07/15 08:10:56;;;;;;;3.17;2.33;;;;;;;30.17;29.54;97003.00;4818550;29;20265;-71
2022/07/15 08:13:25;;;;;;;7.77;2.63;;;;;;;30.28;29.77;96987.25;4818440;29;20228;-71
2022/07/15 08:15:53;;;;;;;4.77;2.43;;;;;;;30.36;29.65;96991.66;4818327;29;20920;-71
2022/07/15 08:18:27;;;;;;;4.53;2.30;;;;;;;30.42;29.96;96998.88;4802327;29;20213;-70
2022/07/15 08:20:54;;;;;;;7.00;3.67;;;;;;;30.40;29.27;96988.41;4819184;29;20328;-70
2022/07/15 08:23:22;;;;;;;4.93;2.90;;;;;;;30.43;28.29;96995.22;4802268;29;20209;-70
2022/07/15 08:25:50;;;;;;;2.90;1.67;;;;;;;30.28;28.44;96989.09;4818893;29;20270;-70
2022/07/15 08:28:18;;;;;;;6.27;3.37;;;;;;;30.18;29.09;96993.94;4819163;29;20739;-70
2022/07/15 08:30:46;;;;;;;3.67;2.37;;;;;;;30.54;28.07;96998.16;4819056;29;20607;-71
2022/07/15 08:33:14;;;;;;;3.90;2.60;;;;;;;30.73;28.89;96993.16;4818910;29;20214;-71
2022/07/15 08:35:43;;;;;;;2.83;2.00;;;;;;;30.90;28.31;96989.16;4818355;29;20296;-71
2022/07/15 08:38:11;;;;;;;6.10;2.03;;;;;;;30.75;28.38;96948.31;4818568;29;20288;-71
2022/07/15 08:40:39;;;;;;;4.53;3.27;;;;;;;31.05;28.58;96971.97;4818313;29;20290;-70
2022/07/15 08:43:08;;;;;;;4.80;2.20;;;;;;;31.26;28.56;96984.38;4819227;29;20202;-70
2022/07/15 08:45:38;;;;;;;10.73;8.45;;;;;;;31.06;28.26;96983.47;4802041;29;20274;-70
2022/07/15 08:48:06;;;;;;;4.80;3.00;;;;;;;31.07;28.36;96982.44;4818781;29;20214;-68
2022/07/15 08:50:34;;;;;;;6.03;3.60;;;;;;;31.08;27.56;96981.41;4818159;29;20213;-69
2022/07/15 08:53:02;;;;;;;6.20;3.20;;;;;;;30.94;28.54;96990.41;4801984;29;20652;-71
2022/07/15 08:55:30;;;;;;;11.17;9.57;;;;;;;30.96;27.52;96983.00;4819311;29;20630;-68
2022/07/15 08:57:57;;;;;;;5.05;4.30;;;;;;;31.13;27.40;96973.63;4818083;29;20214;-70
2022/07/15 09:00:28;;;;;;;6.97;2.10;;;;;;;31.21;28.08;96971.59;4801992;29;20238;-70
2022/07/15 09:03:01;;;;;;;10.37;3.43;;;;;;;31.05;27.54;96963.09;4818344;29;20197;-71
2022/07/15 09:05:33;;;;;;;6.30;3.17;;;;;;;31.28;27.21;96968.97;4818159;29;20197;-71
2022/07/15 09:08:06;;;;;;;3.67;2.20;;;;;;;31.48;27.39;96977.06;4818115;29;20712;-71
2022/07/15 09:10:55;;;;;;;10.50;2.40;;;;;;;31.66;27.53;96970.09;4801406;29;20577;-70
2022/07/15 09:13:38;;;;;;;4.13;1.83;;;;;;;31.69;27.28;96964.34;4818436;29;20542;-70
2022/07/15 09:16:08;;;;;;;5.43;3.30;;;;;;;31.82;26.74;96967.03;4817587;29;20210;-70
2022/07/15 09:18:38;;;;;;;4.35;2.38;;;;;;;31.81;26.67;96956.53;4818125;29;20289;-70
2022/07/15 09:21:20;;;;;;;4.32;3.25;;;;;;;31.84;27.29;96959.63;4801530;29;20246;-70
2022/07/15 09:23:48;;;;;;;3.55;2.00;;;;;;;31.85;26.82;96953.25;4800885;29;20206;-70
2022/07/15 09:26:26;;;;;;;7.25;1.88;;;;;;;31.87;26.92;96964.59;4817744;29;20747;-70
2022/07/15 09:28:53;;;;;;;7.35;3.08;;;;;;;32.01;26.48;96960.91;4817627;29;20214;-70
2022/07/15 09:34:24;;;;;;;3.47;1.90;;;;;;;31.92;26.79;96956.75;4817699;29;20198;-70
2022/07/15 09:36:55;;;;;;;2.10;1.40;;;;;;;31.34;27.63;96944.06;4817494;29;20691;-70
2022/07/15 09:39:25;;;;;;;2.60;1.80;;;;;;;31.40;27.30;96948.63;4817530;29;20256;-70
2022/07/15 09:41:52;;;;;;;2.72;2.05;;;;;;;31.65;26.40;96955.06;4801065;29;21089;-70
2022/07/15 09:44:29;;;;;;;4.03;1.88;;;;;;;31.71;26.77;96945.41;4817468;29;20292;-71
2022/07/15 09:47:03;;;;;;;8.63;2.65;;;;;;;31.95;26.37;96940.28;4817772;29;20209;-71
2022/07/15 09:49:33;;;;;;;3.35;2.22;;;;;;;31.96;26.81;96938.44;4817449;29;20202;-70
2022/07/15 09:52:14;;;;;;;6.20;1.95;;;;;;;32.06;26.64;96936.19;4817695;29;20635;-71
2022/07/15 09:54:48;;;;;;;3.05;1.75;;;;;;;32.05;26.69;96939.88;4817495;29;20209;-71
2022/07/15 09:57:18;;;;;;;3.05;1.98;;;;;;;32.08;26.87;96942.16;4817859;29;20202;-71
2022/07/15 09:59:46;;;;;;;5.00;2.80;;;;;;;32.00;26.83;96929.78;4818105;29;20241;-71
2022/07/15 10:02:14;;;;;;;3.47;2.17;;;;;;;31.89;26.91;96919.66;4817645;29;20206;-71
2022/07/15 10:04:42;;;;;;;2.17;1.90;;;;;;;32.17;26.31;96924.00;4801474;29;20209;-70
2022/07/15 10:07:12;;;;;;;3.83;2.08;;;;;;;32.46;26.29;96923.59;4801525;29;20236;-71
2022/07/15 10:10:01;;;;;;;3.72;1.70;;;;;;;32.20;25.78;96919.06;4817450;29;20267;-71
2022/07/15 10:13:05;;;;;;;5.57;3.30;;;;;;;31.82;26.57;96918.81;4801507;29;20270;-71
2022/07/15 10:15:50;;;;;;;3.60;1.70;;;;;;;31.46;27.27;96920.22;4817559;29;20245;-70
2022/07/15 10:18:36;;;;;;;5.20;2.20;;;;;;;31.35;27.53;96916.25;4816833;29;20263;-70
2022/07/15 10:21:17;;;;;;;6.57;5.00;;;;;;;31.24;27.83;96896.25;4816877;29;20229;-70
2022/07/15 10:24:12;;;;;;;6.25;4.40;;;;;;;31.28;27.76;96908.19;4817144;29;20209;-71
2022/07/15 10:27:01;;;;;;;7.40;2.88;;;;;;;31.50;27.73;96911.56;4817532;29;20570;-71
2022/07/15 10:29:31;;;;;;;5.15;2.50;;;;;;;31.68;27.29;96903.75;4817448;29;20210;-71
2022/07/15 10:32:00;;;;;;;4.90;1.70;;;;;;;31.99;27.32;96906.69;4817183;29;20638;-71
2022/07/15 10:34:35;;;;;;;2.75;1.90;;;;;;;32.22;26.24;96905.44;4817657;29;20255;-71
2022/07/15 10:37:11;;;;;;;2.92;1.83;;;;;;;32.32;26.55;96903.97;4817372;29;20224;-71
2022/07/15 10:39:53;;;;;;;4.45;2.90;;;;;;;32.31;26.06;96898.81;4820741;29;20229;-70
2022/07/15 10:42:24;;;;;;;9.57;3.67;;;;;;;32.29;25.94;96891.00;4820546;29;20609;-71
2022/07/15 10:45:05;;;;;;;4.75;2.75;;;;;;;32.09;27.10;96890.19;4820448;29;20595;-71
2022/07/15 10:47:33;;;;;;;4.53;2.15;;;;;;;31.90;26.43;96888.34;4820404;29;20212;-71
2022/07/15 10:50:00;;;;;;;5.60;2.00;;;;;;;32.02;27.14;96870.63;4820010;29;20194;-71
2022/07/15 10:52:31;;;;;;;5.97;2.25;;;;;;;32.47;26.94;96871.59;4804242;29;20293;-70
2022/07/15 10:55:04;;;;;;;3.50;1.98;;;;;;;32.41;26.73;96867.88;4820230;29;20241;-72
2022/07/15 10:57:40;;;;;;;3.53;2.28;;;;;;;32.63;25.89;96873.81;4820364;29;20292;-71
2022/07/15 11:00:19;;;;;;;6.72;2.42;;;;;;;32.80;25.79;96866.94;4820091;29;20298;-71
2022/07/15 11:03:08;;;;;;;2.78;1.80;;;;;;;32.43;26.03;96868.47;4820391;29;20248;-70
2022/07/15 11:06:04;;;;;;;5.15;1.98;;;;;;;31.82;27.48;96867.91;4820379;29;20297;-70
2022/07/15 11:08:31;;;;;;;5.18;1.85;;;;;;;31.77;27.48;96872.25;4819687;29;20218;-70
2022/07/15 11:11:13;;;;;;;7.15;2.20;;;;;;;31.82;27.23;96865.22;4821190;29;20220;-71
2022/07/15 11:13:42;;;;;;;2.97;1.80;;;;;;;31.94;26.82;96868.16;4822129;29;20213;-70
2022/07/15 11:16:13;;;;;;;3.25;1.77;;;;;;;31.64;27.20;96866.88;4822447;29;20268;-70
2022/07/15 11:18:49;;;;;;;4.68;2.40;;;;;;;31.71;27.73;96865.88;4820781;29;20210;-69
2022/07/15 11:21:17;;;;;;;3.72;2.53;;;;;;;31.80;26.97;96856.56;4804708;29;20404;-70
2022/07/15 11:23:45;;;;;;;2.30;1.70;;;;;;;32.00;26.89;96857.44;4820415;29;20197;-70
2022/07/15 11:26:13;;;;;;;2.55;1.88;;;;;;;31.97;26.87;96860.53;4820760;29;20297;-69
2022/07/15 11:28:51;;;;;;;2.73;1.80;;;;;;;32.04;27.10;96858.66;4820577;29;20247;-71
2022/07/15 11:31:18;;;;;;;2.35;1.88;;;;;;;32.22;27.04;96857.19;4803988;29;20670;-70
2022/07/15 11:33:46;;;;;;;3.28;1.60;;;;;;;32.46;26.39;96856.56;4818839;29;20213;-71
2022/07/15 11:36:23;;;;;;;2.03;1.90;;;;;;;31.97;26.71;96854.34;4820502;29;20697;-71
2022/07/15 11:38:51;;;;;;;3.63;1.90;;;;;;;31.96;26.55;96856.19;4820613;29;20205;-70
2022/07/15 11:46:55;;;;;;;2.63;1.67;;;;;;;31.92;26.49;96820.09;4820007;29;20672;-70
2022/07/15 11:49:27;;;;;;;5.45;2.08;;;;;;;32.29;27.58;96834.69;4818587;29;20194;-71
2022/07/15 11:51:55;;;;;;;6.05;2.40;;;;;;;32.46;26.84;96840.47;4819568;29;20254;-71
2022/07/15 11:54:24;;;;;;;3.83;1.80;;;;;;;32.39;26.53;96819.00;4819127;29;20202;-69
2022/07/15 11:56:56;;;;;;;4.57;2.53;;;;;;;32.68;26.02;96836.44;4788842;29;20733;-70
2022/07/15 11:59:23;;;;;;;1.60;1.50;;;;;;;32.61;25.79;96830.28;4803185;29;20292;-70